Kamarang Airport


Codes: SYKM/KAR
Name: Kamarang Airport
City: Kamarang
Country: Guyana
Elevation: 1601 ft.

Photos at Kamarang Airport


   Photos courtesy of SpottingLog. You can add your own sightings and photos by signing up for a free trial today.



No photos found.

Weather at Kamarang Airport


Time (UTC)DescriptionTempratureWindCloud coverageVisibilityPressureHumidity
18-Apr-2024 00:00Light Rain26°C2 mph, N97%10000m1010hPa72%
18-Apr-2024 03:00Light Rain23°C2 mph, NE98%10000m1012hPa87%
18-Apr-2024 06:00Overcast Clouds21°C0 mph, NW100%10000m1011hPa100%
18-Apr-2024 09:00Overcast Clouds21°C0 mph, NE98%10000m1012hPa99%
18-Apr-2024 12:00Light Rain24°C2 mph, E99%10000m1014hPa92%
18-Apr-2024 15:00Light Rain27°C2 mph, SE97%10000m1013hPa79%
18-Apr-2024 18:00Moderate Rain26°C4 mph, N98%10000m1010hPa87%
18-Apr-2024 21:00Moderate Rain25°C0 mph, SE100%6266m1010hPa93%
19-Apr-2024 00:00Moderate Rain22°C2 mph, SW100%10000m1013hPa100%
19-Apr-2024 03:00Light Rain22°C2 mph, SW100%9631m1014hPa100%
19-Apr-2024 06:00Light Rain21°C2 mph, S100%6787m1012hPa100%
19-Apr-2024 09:00Light Rain21°C2 mph, W100%8272m1012hPa100%
19-Apr-2024 12:00Overcast Clouds23°C0 mph, S99%10000m1014hPa94%
19-Apr-2024 15:00Light Rain31°C2 mph, E97%10000m1012hPa51%
19-Apr-2024 18:00Light Rain31°C4 mph, NE92%10000m1008hPa53%
19-Apr-2024 21:00Light Rain27°C4 mph, N96%10000m1008hPa77%
20-Apr-2024 00:00Moderate Rain22°C2 mph, N96%7743m1011hPa98%
20-Apr-2024 03:00Moderate Rain22°C2 mph, N100%6777m1013hPa100%
20-Apr-2024 06:00Moderate Rain22°C0 mph, NE100%1816m1011hPa100%
20-Apr-2024 09:00Light Rain22°C0 mph, NE100%1613m1012hPa100%
20-Apr-2024 12:00Moderate Rain22°C0 mph, E100%823m1013hPa100%
20-Apr-2024 15:00Heavy Intensity Rain22°C2 mph, N100%10000m1015hPa99%
20-Apr-2024 18:00Light Rain24°C2 mph, N100%10000m1012hPa89%
20-Apr-2024 21:00Light Rain24°C2 mph, NE100%10000m1011hPa88%
21-Apr-2024 00:00Light Rain22°C0 mph, N100%10000m1013hPa98%
21-Apr-2024 03:00Overcast Clouds22°C0 mph, NE100%10000m1014hPa97%
21-Apr-2024 06:00Light Rain21°C2 mph, NE100%10000m1012hPa99%
21-Apr-2024 09:00Light Rain20°C2 mph, NE99%10000m1013hPa99%
21-Apr-2024 12:00Overcast Clouds23°C2 mph, NE98%10000m1015hPa88%
21-Apr-2024 15:00Light Rain30°C2 mph, E87%10000m1014hPa50%
21-Apr-2024 18:00Broken Clouds32°C7 mph, NE84%10000m1010hPa40%
21-Apr-2024 21:00Overcast Clouds27°C7 mph, NE89%10000m1010hPa63%
22-Apr-2024 00:00Overcast Clouds21°C2 mph, N97%10000m1013hPa91%
22-Apr-2024 03:00Broken Clouds20°C2 mph, N78%10000m1014hPa95%
22-Apr-2024 06:00Broken Clouds19°C2 mph, N77%10000m1013hPa99%
22-Apr-2024 09:00Broken Clouds18°C2 mph, N82%10000m1014hPa100%
22-Apr-2024 12:00Overcast Clouds23°C2 mph, NE88%10000m1015hPa75%
22-Apr-2024 15:00Overcast Clouds29°C2 mph, NE100%10000m1014hPa47%
22-Apr-2024 18:00Broken Clouds32°C4 mph, NE79%10000m1010hPa34%
22-Apr-2024 21:00Overcast Clouds28°C7 mph, NE98%10000m1010hPa51%